createdAt,value
2018-05-15T00:01:55.000Z,100126
2018-05-15T00:03:55.000Z,100118
2018-05-15T00:04:55.000Z,100124
2018-05-15T00:06:55.000Z,100124
2018-05-15T00:07:55.000Z,100124
2018-05-15T00:09:39.000Z,100127
2018-05-15T00:10:55.000Z,100126
2018-05-15T00:12:55.000Z,100122
2018-05-15T00:14:55.000Z,100123
2018-05-15T00:16:55.000Z,100125
2018-05-15T00:17:55.000Z,100124
2018-05-15T00:19:55.000Z,100128
2018-05-15T00:20:55.000Z,100130
2018-05-15T00:22:39.000Z,100131
2018-05-15T00:23:55.000Z,100136
2018-05-15T00:24:55.000Z,100132
2018-05-15T00:25:55.000Z,100134
2018-05-15T00:26:55.000Z,100133
2018-05-15T00:28:55.000Z,100137
2018-05-15T00:29:55.000Z,100136
2018-05-15T00:31:55.000Z,100144
2018-05-15T00:32:55.000Z,100144
2018-05-15T00:34:24.000Z,100134
2018-05-15T00:35:55.000Z,100138
2018-05-15T00:37:39.000Z,100140
2018-05-15T00:38:55.000Z,100140
2018-05-15T00:39:55.000Z,100147
2018-05-15T00:41:55.000Z,100146
2018-05-15T00:43:55.000Z,100147
2018-05-15T00:45:55.000Z,100152
2018-05-15T00:47:55.000Z,100147
2018-05-15T00:49:55.000Z,100149
2018-05-15T00:51:55.000Z,100143
2018-05-15T00:53:55.000Z,100140
2018-05-15T00:55:55.000Z,100144
2018-05-15T00:57:55.000Z,100142
2018-05-15T00:59:55.000Z,100145
2018-05-15T01:01:55.000Z,100141
2018-05-15T01:03:55.000Z,100146
2018-05-15T01:05:55.000Z,100142
2018-05-15T01:06:55.000Z,100144
2018-05-15T01:08:55.000Z,100151
2018-05-15T01:09:55.000Z,100154
2018-05-15T01:11:55.000Z,100147
2018-05-15T01:13:40.000Z,100151
2018-05-15T01:14:55.000Z,100155
2018-05-15T01:16:55.000Z,100154
2018-05-15T01:17:55.000Z,100154
2018-05-15T01:19:55.000Z,100153
2018-05-15T01:20:55.000Z,100153
2018-05-15T01:22:25.000Z,100148
2018-05-15T01:23:55.000Z,100150
2018-05-15T01:25:55.000Z,100142
2018-05-15T01:26:55.000Z,100145
2018-05-15T01:27:55.000Z,100141
2018-05-15T01:29:55.000Z,100152
2018-05-15T01:30:55.000Z,100149
2018-05-15T01:32:55.000Z,100155
2018-05-15T01:34:40.000Z,100150
2018-05-15T01:35:55.000Z,100153
2018-05-15T01:36:55.000Z,100151
2018-05-15T01:38:40.000Z,100161
2018-05-15T01:39:55.000Z,100158
2018-05-15T01:40:55.000Z,100162
2018-05-15T01:42:55.000Z,100159
2018-05-15T01:44:55.000Z,100159
2018-05-15T01:46:40.000Z,100157
2018-05-15T01:47:55.000Z,100153
2018-05-15T01:48:55.000Z,100153
2018-05-15T01:50:25.000Z,100152
2018-05-15T01:51:55.000Z,100148
2018-05-15T01:53:55.000Z,100149
2018-05-15T01:55:40.000Z,100148
2018-05-15T01:56:54.000Z,100150
2018-05-15T01:58:39.000Z,100153
2018-05-15T01:59:39.000Z,100146
2018-05-15T02:00:54.000Z,100152
2018-05-15T02:02:54.000Z,100147
2018-05-15T02:04:54.000Z,100149
2018-05-15T02:05:54.000Z,100153
2018-05-15T02:07:54.000Z,100152
2018-05-15T02:09:54.000Z,100149
2018-05-15T02:11:54.000Z,100149
2018-05-15T02:13:54.000Z,100152
2018-05-15T02:15:54.000Z,100151
2018-05-15T02:16:54.000Z,100153
2018-05-15T02:18:39.000Z,100150
2018-05-15T02:19:39.000Z,100149
2018-05-15T02:20:54.000Z,100154
2018-05-15T02:21:54.000Z,100151
2018-05-15T02:23:39.000Z,100148
2018-05-15T02:24:54.000Z,100147
2018-05-15T02:26:39.000Z,100149
2018-05-15T02:27:54.000Z,100149
2018-05-15T02:29:54.000Z,100154
2018-05-15T02:30:54.000Z,100155
2018-05-15T02:32:54.000Z,100158
2018-05-15T02:34:54.000Z,100163
2018-05-15T02:36:54.000Z,100164
2018-05-15T02:38:39.000Z,100165
2018-05-15T02:39:54.000Z,100164
2018-05-15T02:41:54.000Z,100159
2018-05-15T02:43:54.000Z,100159
2018-05-15T02:45:39.000Z,100161
2018-05-15T02:46:54.000Z,100167
2018-05-15T02:48:54.000Z,100162
2018-05-15T02:50:54.000Z,100170
2018-05-15T02:52:54.000Z,100166
2018-05-15T02:53:54.000Z,100168
2018-05-15T02:55:54.000Z,100172
2018-05-15T02:57:54.000Z,100169
2018-05-15T02:59:40.000Z,100174
2018-05-15T03:01:55.000Z,100174
2018-05-15T03:03:55.000Z,100180
2018-05-15T03:05:55.000Z,100179
2018-05-15T03:06:55.000Z,100176
2018-05-15T03:07:55.000Z,100175
2018-05-15T03:09:55.000Z,100180
2018-05-15T03:11:55.000Z,100175
2018-05-15T03:13:40.000Z,100183
2018-05-15T03:14:55.000Z,100177
2018-05-15T03:16:40.000Z,100179
2018-05-15T03:17:55.000Z,100182
2018-05-15T03:19:55.000Z,100182
2018-05-15T03:21:55.000Z,100187
2018-05-15T03:23:55.000Z,100190
2018-05-15T03:25:55.000Z,100196
2018-05-15T03:26:55.000Z,100201
2018-05-15T03:28:55.000Z,100203
2018-05-15T03:30:40.000Z,100202
2018-05-15T03:31:55.000Z,100199
2018-05-15T03:33:55.000Z,100200
2018-05-15T03:35:55.000Z,100200
2018-05-15T03:37:55.000Z,100200
2018-05-15T03:38:55.000Z,100204
2018-05-15T03:39:55.000Z,100201
2018-05-15T03:41:55.000Z,100199
2018-05-15T03:42:55.000Z,100201
2018-05-15T03:43:55.000Z,100202
2018-05-15T03:45:40.000Z,100196
2018-05-15T03:46:55.000Z,100201
2018-05-15T03:48:55.000Z,100205
2018-05-15T03:50:55.000Z,100197
2018-05-15T03:51:55.000Z,100203
2018-05-15T03:52:55.000Z,100205
2018-05-15T03:54:55.000Z,100201
2018-05-15T03:55:55.000Z,100196
2018-05-15T03:57:55.000Z,100199
2018-05-15T03:59:55.000Z,100203
2018-05-15T04:01:40.000Z,100204
2018-05-15T04:02:55.000Z,100207
2018-05-15T04:04:55.000Z,100197
2018-05-15T04:05:55.000Z,100196
2018-05-15T04:07:24.000Z,100194
2018-05-15T04:08:55.000Z,100193
2018-05-15T04:10:40.000Z,100201
2018-05-15T04:11:55.000Z,100197
2018-05-15T04:12:55.000Z,100202
2018-05-15T04:14:40.000Z,100192
2018-05-15T04:15:55.000Z,100197
2018-05-15T04:17:55.000Z,100198
2018-05-15T04:19:55.000Z,100204
2018-05-15T04:21:55.000Z,100209
2018-05-15T04:22:55.000Z,100215
2018-05-15T04:24:55.000Z,100215
2018-05-15T04:26:55.000Z,100218
2018-05-15T04:27:55.000Z,100221
2018-05-15T04:29:55.000Z,100220
2018-05-15T04:31:40.000Z,100224
2018-05-15T04:32:55.000Z,100221
2018-05-15T04:34:55.000Z,100230
2018-05-15T04:35:55.000Z,100232
2018-05-15T04:39:56.000Z,100238
2018-05-15T04:41:55.000Z,100234
2018-05-15T04:42:55.000Z,100237
2018-05-15T04:44:40.000Z,100245
2018-05-15T04:45:55.000Z,100243
2018-05-15T04:47:55.000Z,100240
2018-05-15T04:49:55.000Z,100251
2018-05-15T04:51:55.000Z,100241
2018-05-15T04:52:55.000Z,100239
2018-05-15T04:54:55.000Z,100238
2018-05-15T04:55:55.000Z,100239
2018-05-15T04:57:55.000Z,100238
2018-05-15T04:59:55.000Z,100246
2018-05-15T05:01:55.000Z,100246
2018-05-15T05:03:40.000Z,100248
2018-05-15T05:04:55.000Z,100241
2018-05-15T05:05:55.000Z,100244
2018-05-15T05:07:40.000Z,100248
2018-05-15T05:08:55.000Z,100246
2018-05-15T05:10:55.000Z,100242
2018-05-15T05:12:55.000Z,100246
2018-05-15T05:14:55.000Z,100243
2018-05-15T05:16:40.000Z,100249
2018-05-15T05:17:55.000Z,100250
2018-05-15T05:19:55.000Z,100258
2018-05-15T05:21:55.000Z,100257
2018-05-15T05:23:55.000Z,100260
2018-05-15T05:24:55.000Z,100260
2018-05-15T05:25:55.000Z,100265
2018-05-15T05:27:40.000Z,100261
2018-05-15T05:28:55.000Z,100261
2018-05-15T05:30:55.000Z,100262
2018-05-15T05:31:55.000Z,100264
2018-05-15T05:32:55.000Z,100266
2018-05-15T05:34:55.000Z,100266
2018-05-15T05:36:40.000Z,100263
2018-05-15T05:37:40.000Z,100264
2018-05-15T05:38:55.000Z,100263
2018-05-15T05:39:55.000Z,100264
2018-05-15T05:41:55.000Z,100264
2018-05-15T05:43:24.000Z,100273
2018-05-15T05:44:55.000Z,100272
2018-05-15T05:46:55.000Z,100268
2018-05-15T05:48:55.000Z,100274
2018-05-15T05:49:55.000Z,100276
2018-05-15T05:50:55.000Z,100279
2018-05-15T05:51:55.000Z,100282
2018-05-15T05:53:55.000Z,100285
2018-05-15T05:55:55.000Z,100282
2018-05-15T05:56:55.000Z,100283
2018-05-15T05:57:55.000Z,100291
2018-05-15T05:59:55.000Z,100292
2018-05-15T06:01:55.000Z,100295
2018-05-15T06:02:55.000Z,100293
2018-05-15T06:04:55.000Z,100297
2018-05-15T06:06:55.000Z,100293
2018-05-15T06:08:55.000Z,100296
2018-05-15T06:10:55.000Z,100297
2018-05-15T06:11:55.000Z,100295
2018-05-15T06:13:25.000Z,100297
2018-05-15T06:14:55.000Z,100295
2018-05-15T06:16:40.000Z,100300
2018-05-15T06:17:55.000Z,100302
2018-05-15T06:18:55.000Z,100300
2018-05-15T06:20:55.000Z,100299
2018-05-15T06:22:25.000Z,100307
2018-05-15T06:23:55.000Z,100306
2018-05-15T06:25:55.000Z,100311
2018-05-15T06:27:55.000Z,100312
2018-05-15T06:28:55.000Z,100314
2018-05-15T06:30:55.000Z,100313
2018-05-15T06:32:55.000Z,100312
2018-05-15T06:34:55.000Z,100310
2018-05-15T06:36:55.000Z,100315
2018-05-15T06:37:55.000Z,100314
2018-05-15T06:38:55.000Z,100318
2018-05-15T06:39:55.000Z,100320
2018-05-15T06:41:55.000Z,100321
2018-05-15T06:43:55.000Z,100323
2018-05-15T06:44:55.000Z,100323
2018-05-15T06:46:55.000Z,100322
2018-05-15T06:48:25.000Z,100331
2018-05-15T06:49:55.000Z,100325
2018-05-15T06:51:55.000Z,100325
2018-05-15T06:52:55.000Z,100325
2018-05-15T06:54:40.000Z,100323
2018-05-15T06:55:55.000Z,100327
2018-05-15T06:57:55.000Z,100321
2018-05-15T06:59:55.000Z,100324
2018-05-15T07:01:55.000Z,100321
2018-05-15T07:03:55.000Z,100325
2018-05-15T07:04:55.000Z,100323
2018-05-15T07:06:55.000Z,100319
2018-05-15T07:07:55.000Z,100322
2018-05-15T07:09:55.000Z,100317
2018-05-15T07:10:55.000Z,100319
2018-05-15T07:12:55.000Z,100326
2018-05-15T07:14:55.000Z,100326
2018-05-15T07:15:55.000Z,100323
2018-05-15T07:16:55.000Z,100321
2018-05-15T07:18:55.000Z,100320
2018-05-15T07:20:55.000Z,100322
2018-05-15T07:22:55.000Z,100320
2018-05-15T07:23:55.000Z,100317
2018-05-15T07:24:55.000Z,100316
2018-05-15T07:26:55.000Z,100322
2018-05-15T07:28:55.000Z,100320
2018-05-15T07:29:55.000Z,100322
2018-05-15T07:31:55.000Z,100316
2018-05-15T07:32:55.000Z,100326
2018-05-15T07:33:55.000Z,100322
2018-05-15T07:35:55.000Z,100317
2018-05-15T07:36:55.000Z,100320
2018-05-15T07:38:55.000Z,100320
2018-05-15T07:40:55.000Z,100320
2018-05-15T07:41:55.000Z,100325
2018-05-15T07:43:55.000Z,100330
2018-05-15T07:44:55.000Z,100328
2018-05-15T07:46:55.000Z,100330
2018-05-15T07:48:55.000Z,100335
2018-05-15T07:49:55.000Z,100329
2018-05-15T07:51:55.000Z,100329
2018-05-15T07:52:55.000Z,100335
2018-05-15T08:35:43.000Z,100357
2018-05-15T08:37:29.000Z,100353
2018-05-15T08:39:29.000Z,100358
2018-05-15T08:40:59.000Z,100364
2018-05-15T08:42:29.000Z,100362
2018-05-15T08:43:29.000Z,100359
2018-05-15T08:45:29.000Z,100355
2018-05-15T08:46:29.000Z,100360
2018-05-15T08:48:29.000Z,100359
2018-05-15T08:50:29.000Z,100351
2018-05-15T08:52:29.000Z,100354
2018-05-15T08:54:29.000Z,100353
2018-05-15T08:55:29.000Z,100351
2018-05-15T08:57:29.000Z,100348
2018-05-15T08:59:29.000Z,100345
2018-05-15T09:00:29.000Z,100352
2018-05-15T09:02:29.000Z,100355
2018-05-15T09:04:29.000Z,100350
2018-05-15T09:05:29.000Z,100348
2018-05-15T09:07:29.000Z,100344
2018-05-15T09:09:29.000Z,100350
2018-05-15T09:11:29.000Z,100350
2018-05-15T09:12:59.000Z,100353
2018-05-15T09:14:29.000Z,100351
2018-05-15T09:16:29.000Z,100349
2018-05-15T09:18:29.000Z,100347
2018-05-15T09:19:29.000Z,100351
2018-05-15T09:20:29.000Z,100354
2018-05-15T09:22:29.000Z,100354
2018-05-15T09:24:14.000Z,100357
2018-05-15T09:25:29.000Z,100353
2018-05-15T09:27:29.000Z,100353
2018-05-15T09:29:29.000Z,100347
2018-05-15T09:30:29.000Z,100350
2018-05-15T09:32:29.000Z,100344
2018-05-15T09:34:14.000Z,100346
2018-05-15T09:35:29.000Z,100353
2018-05-15T09:36:29.000Z,100354
2018-05-15T09:37:29.000Z,100350
2018-05-15T09:38:29.000Z,100349
2018-05-15T09:40:29.000Z,100351
2018-05-15T09:41:29.000Z,100350
2018-05-15T09:43:29.000Z,100353
2018-05-15T09:45:14.000Z,100349
2018-05-15T09:46:29.000Z,100349
2018-05-15T09:47:29.000Z,100342
2018-05-15T09:49:29.000Z,100339
2018-05-15T09:51:14.000Z,100358
2018-05-15T09:53:29.000Z,100351
2018-05-15T09:55:29.000Z,100345
2018-05-15T09:57:29.000Z,100343
2018-05-15T09:59:29.000Z,100342
2018-05-15T10:01:29.000Z,100349
2018-05-15T10:03:29.000Z,100341
2018-05-15T10:05:14.000Z,100344
2018-05-15T10:06:29.000Z,100345
2018-05-15T10:07:29.000Z,100347
2018-05-15T10:09:29.000Z,100354
2018-05-15T10:11:29.000Z,100342
2018-05-15T10:13:29.000Z,100352
2018-05-15T10:15:29.000Z,100345
2018-05-15T10:17:29.000Z,100355
2018-05-15T10:19:29.000Z,100344
2018-05-15T10:21:29.000Z,100337
2018-05-15T10:23:29.000Z,100338
2018-05-15T10:24:29.000Z,100350
2018-05-15T10:26:29.000Z,100340
2018-05-15T10:28:14.000Z,100339
2018-05-15T10:29:29.000Z,100341
2018-05-15T10:31:29.000Z,100336
2018-05-15T10:32:29.000Z,100335
2018-05-15T10:33:29.000Z,100339
2018-05-15T10:35:29.000Z,100339
2018-05-15T10:37:29.000Z,100329
2018-05-15T10:39:29.000Z,100339
2018-05-15T10:41:29.000Z,100339
2018-05-15T10:43:29.000Z,100328
2018-05-15T10:44:29.000Z,100327
2018-05-15T10:45:29.000Z,100328
2018-05-15T10:47:29.000Z,100325
2018-05-15T10:49:29.000Z,100325
2018-05-15T10:51:29.000Z,100316
2018-05-15T10:52:29.000Z,100322
2018-05-15T10:54:14.000Z,100312
2018-05-15T10:55:29.000Z,100318
2018-05-15T10:56:29.000Z,100328
2018-05-15T10:57:29.000Z,100317
2018-05-15T10:59:29.000Z,100323
2018-05-15T11:00:59.000Z,100320
2018-05-15T11:02:29.000Z,100316
2018-05-15T11:04:29.000Z,100317
2018-05-15T11:06:29.000Z,100311
2018-05-15T11:08:29.000Z,100314
2018-05-15T11:10:29.000Z,100323
2018-05-15T11:11:29.000Z,100323
2018-05-15T11:13:29.000Z,100316
2018-05-15T11:15:29.000Z,100322
2018-05-15T11:17:29.000Z,100325
2018-05-15T11:19:29.000Z,100313
2018-05-15T11:21:14.000Z,100318
2018-05-15T11:22:14.000Z,100311
2018-05-15T11:23:29.000Z,100322
2018-05-15T11:25:29.000Z,100323
2018-05-15T11:26:59.000Z,100318
2018-05-15T11:28:29.000Z,100314
2018-05-15T11:30:14.000Z,100310
2018-05-15T11:31:14.000Z,100315
2018-05-15T11:32:29.000Z,100314
2018-05-15T11:33:29.000Z,100317
2018-05-15T11:34:29.000Z,100316
2018-05-15T11:36:29.000Z,100316
2018-05-15T11:38:29.000Z,100314
2018-05-15T11:40:29.000Z,100311
2018-05-15T11:42:29.000Z,100320
2018-05-15T11:44:29.000Z,100318
2018-05-15T11:46:29.000Z,100305
2018-05-15T11:47:29.000Z,100305
2018-05-15T11:48:29.000Z,100307
2018-05-15T11:50:29.000Z,100313
2018-05-15T11:52:29.000Z,100295
2018-05-15T11:54:29.000Z,100290
2018-05-15T11:56:29.000Z,100286
2018-05-15T11:58:29.000Z,100288
2018-05-15T12:00:29.000Z,100293
2018-05-15T12:01:29.000Z,100282
2018-05-15T12:02:29.000Z,100295
2018-05-15T12:04:29.000Z,100300
2018-05-15T12:06:29.000Z,100300
2018-05-15T12:07:29.000Z,100296
2018-05-15T12:09:29.000Z,100303
2018-05-15T12:11:14.000Z,100291
2018-05-15T12:13:29.000Z,100294
2018-05-15T12:14:29.000Z,100293
2018-05-15T12:15:29.000Z,100290
2018-05-15T12:17:29.000Z,100285
2018-05-15T12:18:29.000Z,100295
2018-05-15T12:20:14.000Z,100296
2018-05-15T12:21:29.000Z,100297
2018-05-15T12:23:29.000Z,100291
2018-05-15T12:25:29.000Z,100289
2018-05-15T12:27:29.000Z,100292
2018-05-15T12:28:29.000Z,100291
2018-05-15T12:30:29.000Z,100292
2018-05-15T12:32:29.000Z,100292
2018-05-15T12:33:30.000Z,100293
2018-05-15T12:34:59.000Z,100289
2018-05-15T12:36:29.000Z,100281
2018-05-15T12:37:30.000Z,100281
2018-05-15T12:39:30.000Z,100278
2018-05-15T12:40:30.000Z,100282
2018-05-15T12:42:29.000Z,100275
2018-05-15T12:44:29.000Z,100277
2018-05-15T12:45:30.000Z,100275
2018-05-15T12:46:30.000Z,100280
2018-05-15T12:48:29.000Z,100275
2018-05-15T12:50:15.000Z,100277
2018-05-15T12:51:29.000Z,100278
2018-05-15T12:53:29.000Z,100279
2018-05-15T12:55:29.000Z,100284
2018-05-15T12:59:16.000Z,100279
2018-05-15T13:01:16.000Z,100283
2018-05-15T13:03:16.000Z,100275
2018-05-15T13:04:16.000Z,100283
2018-05-15T13:06:16.000Z,100283
2018-05-15T13:08:16.000Z,100280
2018-05-15T13:10:16.000Z,100281
2018-05-15T13:12:16.000Z,100282
2018-05-15T13:14:00.000Z,100277
2018-05-15T13:15:16.000Z,100277
2018-05-15T13:17:16.000Z,100270
2018-05-15T13:18:45.000Z,100271
2018-05-15T13:20:16.000Z,100271
2018-05-15T13:22:16.000Z,100273
2018-05-15T13:24:16.000Z,100273
2018-05-15T13:26:16.000Z,100268
2018-05-15T13:28:16.000Z,100271
2018-05-15T13:30:16.000Z,100267
2018-05-15T13:32:16.000Z,100263
2018-05-15T13:34:00.000Z,100262
2018-05-15T13:35:15.000Z,100261
2018-05-15T13:37:15.000Z,100258
2018-05-15T13:39:15.000Z,100255
2018-05-15T13:41:15.000Z,100255
2018-05-15T13:43:15.000Z,100250
2018-05-15T13:45:15.000Z,100246
2018-05-15T13:47:15.000Z,100247
2018-05-15T13:49:15.000Z,100242
2018-05-15T13:50:15.000Z,100238
2018-05-15T13:52:15.000Z,100245
2018-05-15T13:54:00.000Z,100250
2018-05-15T13:55:15.000Z,100246
2018-05-15T13:57:00.000Z,100237
2018-05-15T13:58:15.000Z,100243
2018-05-15T14:00:15.000Z,100241
2018-05-15T14:02:00.000Z,100229
2018-05-15T14:03:15.000Z,100242
2018-05-15T14:05:15.000Z,100232
2018-05-15T14:07:15.000Z,100234
2018-05-15T14:09:00.000Z,100240
2018-05-15T14:10:15.000Z,100239
2018-05-15T14:12:15.000Z,100229
2018-05-15T14:14:15.000Z,100233
2018-05-15T14:16:15.000Z,100227
2018-05-15T14:17:15.000Z,100227
2018-05-15T14:19:15.000Z,100223
2018-05-15T14:21:15.000Z,100222
2018-05-15T14:22:15.000Z,100223
2018-05-15T14:24:00.000Z,100228
2018-05-15T14:25:15.000Z,100226
2018-05-15T14:27:15.000Z,100225
2018-05-15T14:29:00.000Z,100225
2018-05-15T14:30:15.000Z,100219
2018-05-15T14:31:15.000Z,100217
2018-05-15T14:33:15.000Z,100215
2018-05-15T14:35:15.000Z,100219
2018-05-15T14:37:16.000Z,100218
2018-05-15T14:39:16.000Z,100218
2018-05-15T14:40:16.000Z,100217
2018-05-15T14:42:16.000Z,100211
2018-05-15T14:44:16.000Z,100217
2018-05-15T14:46:16.000Z,100209
2018-05-15T14:48:16.000Z,100204
2018-05-15T14:49:16.000Z,100210
2018-05-15T14:50:16.000Z,100203
2018-05-15T14:51:16.000Z,100204
2018-05-15T14:53:16.000Z,100206
2018-05-15T14:55:00.000Z,100216
2018-05-15T14:56:16.000Z,100209
2018-05-15T14:57:16.000Z,100206
2018-05-15T14:58:16.000Z,100203
2018-05-15T15:00:16.000Z,100202
2018-05-15T15:02:16.000Z,100195
2018-05-15T15:03:16.000Z,100201
2018-05-15T15:05:00.000Z,100189
2018-05-15T15:06:16.000Z,100193
2018-05-15T15:08:16.000Z,100186
2018-05-15T15:09:16.000Z,100190
2018-05-15T15:11:00.000Z,100190
2018-05-15T15:12:16.000Z,100191
2018-05-15T15:13:16.000Z,100189
2018-05-15T15:15:16.000Z,100189
2018-05-15T15:17:16.000Z,100189
2018-05-15T15:18:16.000Z,100184
2018-05-15T15:20:16.000Z,100177
2018-05-15T15:21:16.000Z,100180
2018-05-15T15:23:16.000Z,100186
2018-05-15T15:25:16.000Z,100179
2018-05-15T15:26:16.000Z,100172
2018-05-15T15:28:00.000Z,100180
2018-05-15T15:29:16.000Z,100181
2018-05-15T15:31:16.000Z,100185
2018-05-15T15:33:16.000Z,100182
2018-05-15T15:35:16.000Z,100177
2018-05-15T15:36:16.000Z,100175
2018-05-15T15:38:16.000Z,100176
2018-05-15T15:40:16.000Z,100179
2018-05-15T15:42:16.000Z,100171
2018-05-15T15:43:16.000Z,100176
2018-05-15T15:44:16.000Z,100174
2018-05-15T15:46:00.000Z,100178
2018-05-15T15:47:16.000Z,100171
2018-05-15T15:49:16.000Z,100171
2018-05-15T15:51:16.000Z,100174
2018-05-15T15:53:00.000Z,100166
2018-05-15T15:54:16.000Z,100162
2018-05-15T15:56:16.000Z,100163
2018-05-15T15:58:00.000Z,100162
2018-05-15T15:59:16.000Z,100164
2018-05-15T16:00:16.000Z,100158
2018-05-15T16:02:16.000Z,100159
2018-05-15T16:04:16.000Z,100155
2018-05-15T16:05:16.000Z,100158
2018-05-15T16:07:16.000Z,100154
2018-05-15T16:09:16.000Z,100155
2018-05-15T16:11:16.000Z,100160
2018-05-15T16:13:16.000Z,100163
2018-05-15T16:15:16.000Z,100155
2018-05-15T16:16:16.000Z,100154
2018-05-15T16:18:16.000Z,100151
2018-05-15T16:20:16.000Z,100149
2018-05-15T16:21:16.000Z,100154
2018-05-15T16:23:00.000Z,100151
2018-05-15T16:24:16.000Z,100148
2018-05-15T16:26:16.000Z,100153
2018-05-15T16:28:00.000Z,100156
2018-05-15T16:29:16.000Z,100159
2018-05-15T16:30:16.000Z,100160
2018-05-15T16:32:00.000Z,100152
2018-05-15T16:33:16.000Z,100155
2018-05-15T16:34:16.000Z,100155
2018-05-15T16:36:16.000Z,100161
2018-05-15T16:38:16.000Z,100159
2018-05-15T16:40:16.000Z,100161
2018-05-15T16:42:16.000Z,100153
2018-05-15T16:43:16.000Z,100158
2018-05-15T16:45:15.000Z,100147
2018-05-15T16:46:15.000Z,100157
2018-05-15T16:48:15.000Z,100152
2018-05-15T16:50:15.000Z,100150
2018-05-15T16:52:15.000Z,100151
2018-05-15T16:54:15.000Z,100156
2018-05-15T16:55:15.000Z,100158
2018-05-15T16:57:00.000Z,100153
2018-05-15T16:58:15.000Z,100151
2018-05-15T16:59:15.000Z,100146
2018-05-15T17:01:00.000Z,100143
2018-05-15T17:02:15.000Z,100151
2018-05-15T17:03:15.000Z,100147
2018-05-15T17:05:00.000Z,100149
2018-05-15T17:06:15.000Z,100148
2018-05-15T17:08:15.000Z,100142
2018-05-15T17:10:15.000Z,100137
2018-05-15T17:12:15.000Z,100140
2018-05-15T17:14:15.000Z,100147
2018-05-15T17:15:15.000Z,100144
2018-05-15T17:17:15.000Z,100138
2018-05-15T17:19:00.000Z,100133
2018-05-15T17:20:15.000Z,100123
2018-05-15T17:22:15.000Z,100128
2018-05-15T17:24:15.000Z,100128
2018-05-15T17:25:15.000Z,100126
2018-05-15T17:27:00.000Z,100131
2018-05-15T17:28:15.000Z,100133
2018-05-15T17:29:15.000Z,100130
2018-05-15T17:31:15.000Z,100126
2018-05-15T17:33:15.000Z,100124
2018-05-15T17:35:15.000Z,100124
2018-05-15T17:37:15.000Z,100127
2018-05-15T17:39:15.000Z,100127
2018-05-15T17:41:00.000Z,100126
2018-05-15T17:42:15.000Z,100129
2018-05-15T17:43:44.000Z,100133
2018-05-15T17:45:15.000Z,100128
2018-05-15T17:47:00.000Z,100128
2018-05-15T17:48:16.000Z,100130
2018-05-15T17:50:16.000Z,100134
2018-05-15T17:52:16.000Z,100128
2018-05-15T17:54:16.000Z,100126
2018-05-15T17:56:16.000Z,100130
2018-05-15T17:58:16.000Z,100128
2018-05-15T17:59:16.000Z,100132
2018-05-15T18:01:16.000Z,100128
2018-05-15T18:02:16.000Z,100129
2018-05-15T18:04:01.000Z,100131
2018-05-15T18:05:16.000Z,100129
2018-05-15T18:07:01.000Z,100139
2018-05-15T18:08:16.000Z,100133
2018-05-15T18:10:16.000Z,100138
2018-05-15T18:12:01.000Z,100135
2018-05-15T18:13:16.000Z,100140
2018-05-15T18:14:16.000Z,100136
2018-05-15T18:16:01.000Z,100131
2018-05-15T18:17:16.000Z,100133
2018-05-15T18:18:16.000Z,100133
2018-05-15T18:19:16.000Z,100129
2018-05-15T18:21:16.000Z,100136
2018-05-15T18:23:01.000Z,100139
2018-05-15T18:24:16.000Z,100139
2018-05-15T18:26:01.000Z,100134
2018-05-15T18:27:16.000Z,100137
2018-05-15T18:28:16.000Z,100139
2018-05-15T18:29:16.000Z,100137
2018-05-15T18:31:01.000Z,100137
2018-05-15T18:32:16.000Z,100138
2018-05-15T18:34:16.000Z,100142
2018-05-15T18:36:16.000Z,100144
2018-05-15T18:38:01.000Z,100140
2018-05-15T18:39:16.000Z,100141
2018-05-15T18:40:16.000Z,100138
2018-05-15T18:42:16.000Z,100140
2018-05-15T18:44:16.000Z,100139
2018-05-15T18:45:16.000Z,100143
2018-05-15T18:47:16.000Z,100144
2018-05-15T18:49:16.000Z,100142
2018-05-15T18:50:16.000Z,100141
2018-05-15T18:52:15.000Z,100149
2018-05-15T18:54:15.000Z,100150
2018-05-15T18:56:15.000Z,100150
2018-05-15T18:57:15.000Z,100148
2018-05-15T18:58:15.000Z,100148
2018-05-15T19:00:15.000Z,100152
2018-05-15T19:01:15.000Z,100150
2018-05-15T19:03:15.000Z,100151
2018-05-15T19:04:15.000Z,100150
2018-05-15T19:06:15.000Z,100150
2018-05-15T19:08:15.000Z,100148
2018-05-15T19:10:15.000Z,100149
2018-05-15T19:11:15.000Z,100152
2018-05-15T19:13:15.000Z,100146
2018-05-15T19:15:15.000Z,100149
2018-05-15T19:17:00.000Z,100155
2018-05-15T19:18:00.000Z,100152
2018-05-15T19:19:15.000Z,100156
2018-05-15T19:20:15.000Z,100153
2018-05-15T19:21:15.000Z,100153
2018-05-15T19:23:15.000Z,100154
2018-05-15T19:24:15.000Z,100155
2018-05-15T19:25:15.000Z,100162
2018-05-15T19:27:15.000Z,100154
2018-05-15T19:29:00.000Z,100156
2018-05-15T19:30:15.000Z,100159
2018-05-15T19:32:15.000Z,100157
2018-05-15T19:33:15.000Z,100160
2018-05-15T19:35:00.000Z,100157
2018-05-15T19:36:15.000Z,100152
2018-05-15T19:38:15.000Z,100162
2018-05-15T19:40:00.000Z,100163
2018-05-15T19:41:15.000Z,100165
2018-05-15T19:42:15.000Z,100157
2018-05-15T19:44:15.000Z,100161
2018-05-15T19:46:15.000Z,100164
2018-05-15T19:47:15.000Z,100159
2018-05-15T19:49:15.000Z,100165
2018-05-15T19:51:15.000Z,100163
2018-05-15T19:53:15.000Z,100164
2018-05-15T19:54:15.000Z,100160
2018-05-15T19:56:15.000Z,100162
2018-05-15T19:58:15.000Z,100158
2018-05-15T20:00:15.000Z,100164
2018-05-15T20:02:15.000Z,100161
2018-05-15T20:03:45.000Z,100168
2018-05-15T20:05:15.000Z,100160
2018-05-15T20:06:15.000Z,100161
2018-05-15T20:08:00.000Z,100155
2018-05-15T20:09:15.000Z,100160
2018-05-15T20:11:15.000Z,100156
2018-05-15T20:13:15.000Z,100161
2018-05-15T20:15:15.000Z,100159
2018-05-15T20:17:15.000Z,100158
2018-05-15T20:19:15.000Z,100155
2018-05-15T20:20:15.000Z,100153
2018-05-15T20:22:00.000Z,100155
2018-05-15T20:23:15.000Z,100157
2018-05-15T20:24:15.000Z,100161
2018-05-15T20:25:15.000Z,100156
2018-05-15T20:27:00.000Z,100155
2018-05-15T20:28:15.000Z,100160
2018-05-15T20:29:15.000Z,100159
2018-05-15T20:31:00.000Z,100159
2018-05-15T20:32:15.000Z,100158
2018-05-15T20:34:15.000Z,100157
2018-05-15T20:36:15.000Z,100157
2018-05-15T20:37:15.000Z,100159
2018-05-15T20:39:00.000Z,100153
2018-05-15T20:40:15.000Z,100158
2018-05-15T20:41:15.000Z,100155
2018-05-15T20:43:15.000Z,100161
2018-05-15T20:44:15.000Z,100153
2018-05-15T20:46:00.000Z,100158
2018-05-15T20:47:15.000Z,100156
2018-05-15T20:49:15.000Z,100159
2018-05-15T20:50:15.000Z,100160
2018-05-15T20:51:45.000Z,100160
2018-05-15T20:53:15.000Z,100162